Terminal Aerodrome Forecast
Issued by NWS Raleigh/Durham, NC

Home | Current Version | Previous Version | Text Only | Print | Product List | Glossary On
Versions: 1 2 3 4 5 6 7 8 9 10 11 12 13 14 15 16 17 18 19 20 21 22 23 24 25 26
000
FTUS42 KRAH 112327
TAFFAY
TAF
KFAY 112327Z 1200/1224 VRB03KT P6SM SKC
     FM121500 25009KT P6SM BKN150
     FM121700 27011G23KT P6SM SCT150
     FM121800 27011G23KT P6SM SCT030=

USA.gov is the U.S. government's official web portal to all federal, state and local government web resources and services.